sensor_id;sensor_type;location;lat;lon;timestamp;temperature;humidity
22635;DHT22;11484;50.858;4.384;2023-03-30T00:02:26;16.90;99.90
22635;DHT22;11484;50.858;4.384;2023-03-30T00:04:55;16.90;99.90
22635;DHT22;11484;50.858;4.384;2023-03-30T00:07:27;16.80;99.90
22635;DHT22;11484;50.858;4.384;2023-03-30T00:09:55;16.70;99.90
22635;DHT22;11484;50.858;4.384;2023-03-30T00:12:21;16.70;99.90
22635;DHT22;11484;50.858;4.384;2023-03-30T00:14:47;16.70;99.90
22635;DHT22;11484;50.858;4.384;2023-03-30T00:17:13;16.70;99.90
22635;DHT22;11484;50.858;4.384;2023-03-30T00:19:38;16.60;99.90
22635;DHT22;11484;50.858;4.384;2023-03-30T00:22:05;16.60;99.90
22635;DHT22;11484;50.858;4.384;2023-03-30T00:24:32;16.60;99.90
22635;DHT22;11484;50.858;4.384;2023-03-30T00:26:58;16.60;99.90
22635;DHT22;11484;50.858;4.384;2023-03-30T00:29:23;16.60;99.90
22635;DHT22;11484;50.858;4.384;2023-03-30T00:31:49;16.60;99.90
22635;DHT22;11484;50.858;4.384;2023-03-30T00:34:15;16.60;99.90
22635;DHT22;11484;50.858;4.384;2023-03-30T00:36:41;16.60;99.90
22635;DHT22;11484;50.858;4.384;2023-03-30T00:39:08;16.50;99.90
22635;DHT22;11484;50.858;4.384;2023-03-30T00:41:34;16.60;99.90
22635;DHT22;11484;50.858;4.384;2023-03-30T00:44:03;16.60;99.90
22635;DHT22;11484;50.858;4.384;2023-03-30T00:46:30;16.50;99.90
22635;DHT22;11484;50.858;4.384;2023-03-30T00:49:07;16.60;99.90
22635;DHT22;11484;50.858;4.384;2023-03-30T00:51:36;16.40;99.90
22635;DHT22;11484;50.858;4.384;2023-03-30T00:54:10;16.30;99.90
22635;DHT22;11484;50.858;4.384;2023-03-30T00:56:37;16.30;99.90
22635;DHT22;11484;50.858;4.384;2023-03-30T00:59:03;16.30;99.90
22635;DHT22;11484;50.858;4.384;2023-03-30T01:01:30;16.40;99.90
22635;DHT22;11484;50.858;4.384;2023-03-30T01:04:03;16.40;99.90
22635;DHT22;11484;50.858;4.384;2023-03-30T01:06:32;16.40;99.90
22635;DHT22;11484;50.858;4.384;2023-03-30T01:08:58;16.40;99.90
22635;DHT22;11484;50.858;4.384;2023-03-30T01:11:25;16.30;99.90
22635;DHT22;11484;50.858;4.384;2023-03-30T01:13:58;16.30;99.90
22635;DHT22;11484;50.858;4.384;2023-03-30T01:19:16;16.20;99.90
22635;DHT22;11484;50.858;4.384;2023-03-30T01:47:23;16.00;99.90
22635;DHT22;11484;50.858;4.384;2023-03-30T01:50:32;16.00;99.90
22635;DHT22;11484;50.858;4.384;2023-03-30T01:53:08;15.90;99.90
22635;DHT22;11484;50.858;4.384;2023-03-30T01:55:52;15.90;99.90
22635;DHT22;11484;50.858;4.384;2023-03-30T01:58:37;15.90;99.90
22635;DHT22;11484;50.858;4.384;2023-03-30T02:01:05;15.80;99.90
22635;DHT22;11484;50.858;4.384;2023-03-30T02:03:35;15.80;99.90
22635;DHT22;11484;50.858;4.384;2023-03-30T02:06:12;15.80;99.90
22635;DHT22;11484;50.858;4.384;2023-03-30T02:08:40;15.70;99.90
22635;DHT22;11484;50.858;4.384;2023-03-30T02:11:07;15.70;99.90
22635;DHT22;11484;50.858;4.384;2023-03-30T02:13:34;15.70;99.90
22635;DHT22;11484;50.858;4.384;2023-03-30T02:16:11;15.80;99.90
22635;DHT22;11484;50.858;4.384;2023-03-30T02:18:39;15.80;99.90
22635;DHT22;11484;50.858;4.384;2023-03-30T02:21:05;15.80;99.90
22635;DHT22;11484;50.858;4.384;2023-03-30T02:23:34;15.80;99.90
22635;DHT22;11484;50.858;4.384;2023-03-30T02:26:02;15.80;99.90
22635;DHT22;11484;50.858;4.384;2023-03-30T02:28:29;16.00;99.90
22635;DHT22;11484;50.858;4.384;2023-03-30T02:30:55;16.10;99.90
22635;DHT22;11484;50.858;4.384;2023-03-30T02:33:28;16.10;99.90
22635;DHT22;11484;50.858;4.384;2023-03-30T02:50:38;15.90;99.90
22635;DHT22;11484;50.858;4.384;2023-03-30T02:53:20;15.90;99.90
22635;DHT22;11484;50.858;4.384;2023-03-30T02:56:01;16.00;99.90
22635;DHT22;11484;50.858;4.384;2023-03-30T02:58:50;16.00;99.90
22635;DHT22;11484;50.858;4.384;2023-03-30T03:03:57;16.10;99.90
22635;DHT22;11484;50.858;4.384;2023-03-30T03:06:25;16.10;99.90
22635;DHT22;11484;50.858;4.384;2023-03-30T03:08:53;16.00;99.90
22635;DHT22;11484;50.858;4.384;2023-03-30T03:11:20;15.90;99.90
22635;DHT22;11484;50.858;4.384;2023-03-30T03:13:45;15.90;99.90
22635;DHT22;11484;50.858;4.384;2023-03-30T03:16:12;15.80;99.90
22635;DHT22;11484;50.858;4.384;2023-03-30T03:18:38;15.90;99.90
22635;DHT22;11484;50.858;4.384;2023-03-30T03:21:07;15.80;99.90
22635;DHT22;11484;50.858;4.384;2023-03-30T03:23:34;15.90;99.90
22635;DHT22;11484;50.858;4.384;2023-03-30T03:26:01;15.90;99.90
22635;DHT22;11484;50.858;4.384;2023-03-30T03:28:28;15.90;99.90
22635;DHT22;11484;50.858;4.384;2023-03-30T03:30:54;16.00;99.90
22635;DHT22;11484;50.858;4.384;2023-03-30T03:33:20;15.90;99.90
22635;DHT22;11484;50.858;4.384;2023-03-30T03:35:46;15.90;99.90
22635;DHT22;11484;50.858;4.384;2023-03-30T03:38:12;15.80;99.90
22635;DHT22;11484;50.858;4.384;2023-03-30T03:40:39;15.80;99.90
22635;DHT22;11484;50.858;4.384;2023-03-30T03:43:05;15.70;99.90
22635;DHT22;11484;50.858;4.384;2023-03-30T03:45:31;15.70;99.90
22635;DHT22;11484;50.858;4.384;2023-03-30T03:47:57;15.70;99.90
22635;DHT22;11484;50.858;4.384;2023-03-30T03:50:26;15.70;99.90
22635;DHT22;11484;50.858;4.384;2023-03-30T03:52:51;15.80;99.90
22635;DHT22;11484;50.858;4.384;2023-03-30T03:55:17;15.90;99.90
22635;DHT22;11484;50.858;4.384;2023-03-30T03:57:44;15.80;99.90
22635;DHT22;11484;50.858;4.384;2023-03-30T04:00:10;15.80;99.90
22635;DHT22;11484;50.858;4.384;2023-03-30T04:02:42;15.70;99.90
22635;DHT22;11484;50.858;4.384;2023-03-30T04:05:09;15.70;99.90
22635;DHT22;11484;50.858;4.384;2023-03-30T04:07:35;15.70;99.90
22635;DHT22;11484;50.858;4.384;2023-03-30T04:10:05;15.70;99.90
22635;DHT22;11484;50.858;4.384;2023-03-30T04:12:32;15.80;99.90
22635;DHT22;11484;50.858;4.384;2023-03-30T04:14:57;15.60;99.90
22635;DHT22;11484;50.858;4.384;2023-03-30T04:17:23;15.60;99.90
22635;DHT22;11484;50.858;4.384;2023-03-30T04:19:50;15.60;99.90
22635;DHT22;11484;50.858;4.384;2023-03-30T04:22:22;15.60;99.90
22635;DHT22;11484;50.858;4.384;2023-03-30T04:24:51;15.60;99.90
22635;DHT22;11484;50.858;4.384;2023-03-30T04:27:17;15.60;99.90
22635;DHT22;11484;50.858;4.384;2023-03-30T04:29:43;15.60;99.90
22635;DHT22;11484;50.858;4.384;2023-03-30T04:32:10;15.60;99.90
22635;DHT22;11484;50.858;4.384;2023-03-30T04:34:39;15.70;99.90
22635;DHT22;11484;50.858;4.384;2023-03-30T04:37:08;15.70;99.90
22635;DHT22;11484;50.858;4.384;2023-03-30T04:39:35;15.70;99.90
22635;DHT22;11484;50.858;4.384;2023-03-30T04:42:01;15.70;99.90
22635;DHT22;11484;50.858;4.384;2023-03-30T04:44:30;15.70;99.90
22635;DHT22;11484;50.858;4.384;2023-03-30T04:46:56;15.80;99.90
22635;DHT22;11484;50.858;4.384;2023-03-30T04:49:22;15.60;99.90
22635;DHT22;11484;50.858;4.384;2023-03-30T04:51:48;15.50;99.90
22635;DHT22;11484;50.858;4.384;2023-03-30T04:54:14;15.50;99.90
22635;DHT22;11484;50.858;4.384;2023-03-30T04:56:39;15.40;99.90
22635;DHT22;11484;50.858;4.384;2023-03-30T04:59:06;15.30;99.90
22635;DHT22;11484;50.858;4.384;2023-03-30T05:01:32;15.20;99.90
22635;DHT22;11484;50.858;4.384;2023-03-30T05:03:58;15.30;99.90
22635;DHT22;11484;50.858;4.384;2023-03-30T05:06:24;15.20;99.90
22635;DHT22;11484;50.858;4.384;2023-03-30T05:08:51;15.20;99.90
22635;DHT22;11484;50.858;4.384;2023-03-30T05:11:17;15.10;99.90
22635;DHT22;11484;50.858;4.384;2023-03-30T05:13:42;15.20;99.90
22635;DHT22;11484;50.858;4.384;2023-03-30T05:16:08;15.10;99.90
22635;DHT22;11484;50.858;4.384;2023-03-30T05:18:34;15.10;99.90
22635;DHT22;11484;50.858;4.384;2023-03-30T05:21:00;15.10;99.90
22635;DHT22;11484;50.858;4.384;2023-03-30T05:23:26;15.00;99.90
22635;DHT22;11484;50.858;4.384;2023-03-30T05:25:55;14.90;99.90
22635;DHT22;11484;50.858;4.384;2023-03-30T05:28:21;14.80;99.90
22635;DHT22;11484;50.858;4.384;2023-03-30T05:30:54;14.80;99.90
22635;DHT22;11484;50.858;4.384;2023-03-30T05:33:21;14.80;99.90
22635;DHT22;11484;50.858;4.384;2023-03-30T05:35:47;14.90;99.90
22635;DHT22;11484;50.858;4.384;2023-03-30T05:38:13;14.90;99.90
22635;DHT22;11484;50.858;4.384;2023-03-30T05:40:39;14.90;99.90
22635;DHT22;11484;50.858;4.384;2023-03-30T05:43:07;14.90;99.90
22635;DHT22;11484;50.858;4.384;2023-03-30T05:45:33;14.90;99.90
22635;DHT22;11484;50.858;4.384;2023-03-30T05:47:59;14.80;99.90
22635;DHT22;11484;50.858;4.384;2023-03-30T05:50:26;14.70;99.90
22635;DHT22;11484;50.858;4.384;2023-03-30T05:52:51;14.60;99.90
22635;DHT22;11484;50.858;4.384;2023-03-30T05:55:17;14.60;99.90
22635;DHT22;11484;50.858;4.384;2023-03-30T05:57:43;14.50;99.90
22635;DHT22;11484;50.858;4.384;2023-03-30T06:00:11;14.50;99.90
22635;DHT22;11484;50.858;4.384;2023-03-30T06:02:38;14.50;99.90
22635;DHT22;11484;50.858;4.384;2023-03-30T06:05:05;14.50;99.90
22635;DHT22;11484;50.858;4.384;2023-03-30T06:07:30;14.60;99.90
22635;DHT22;11484;50.858;4.384;2023-03-30T06:09:57;14.60;99.90
22635;DHT22;11484;50.858;4.384;2023-03-30T06:12:24;14.70;99.90
22635;DHT22;11484;50.858;4.384;2023-03-30T06:14:51;14.80;99.90
22635;DHT22;11484;50.858;4.384;2023-03-30T06:17:16;14.80;99.90
22635;DHT22;11484;50.858;4.384;2023-03-30T06:19:43;14.90;99.90
22635;DHT22;11484;50.858;4.384;2023-03-30T06:22:09;14.80;99.90
22635;DHT22;11484;50.858;4.384;2023-03-30T06:24:35;14.80;99.90
22635;DHT22;11484;50.858;4.384;2023-03-30T06:27:00;14.80;99.90
22635;DHT22;11484;50.858;4.384;2023-03-30T06:29:28;14.80;99.90
22635;DHT22;11484;50.858;4.384;2023-03-30T06:31:54;14.70;99.90
22635;DHT22;11484;50.858;4.384;2023-03-30T06:34:20;14.80;99.90
22635;DHT22;11484;50.858;4.384;2023-03-30T06:36:47;14.80;99.90
22635;DHT22;11484;50.858;4.384;2023-03-30T06:39:13;14.90;99.90
22635;DHT22;11484;50.858;4.384;2023-03-30T06:41:39;14.90;99.90
22635;DHT22;11484;50.858;4.384;2023-03-30T06:44:05;14.80;99.90
22635;DHT22;11484;50.858;4.384;2023-03-30T06:46:31;14.70;99.90
22635;DHT22;11484;50.858;4.384;2023-03-30T06:48:58;14.80;99.90
22635;DHT22;11484;50.858;4.384;2023-03-30T06:51:23;15.00;99.90
22635;DHT22;11484;50.858;4.384;2023-03-30T06:53:50;15.10;99.90
22635;DHT22;11484;50.858;4.384;2023-03-30T06:56:16;15.40;99.90
22635;DHT22;11484;50.858;4.384;2023-03-30T06:58:42;15.80;99.90
22635;DHT22;11484;50.858;4.384;2023-03-30T07:01:09;15.90;99.90
22635;DHT22;11484;50.858;4.384;2023-03-30T07:03:35;16.00;99.90
22635;DHT22;11484;50.858;4.384;2023-03-30T07:06:02;16.50;99.90
22635;DHT22;11484;50.858;4.384;2023-03-30T07:08:28;17.60;99.90
22635;DHT22;11484;50.858;4.384;2023-03-30T07:10:54;18.60;99.90
22635;DHT22;11484;50.858;4.384;2023-03-30T07:13:20;19.20;99.90
22635;DHT22;11484;50.858;4.384;2023-03-30T07:15:46;19.70;99.90
22635;DHT22;11484;50.858;4.384;2023-03-30T07:18:12;20.40;99.90
22635;DHT22;11484;50.858;4.384;2023-03-30T07:20:38;21.20;99.90
22635;DHT22;11484;50.858;4.384;2023-03-30T07:23:04;21.50;99.90
22635;DHT22;11484;50.858;4.384;2023-03-30T07:25:30;21.40;99.90
22635;DHT22;11484;50.858;4.384;2023-03-30T07:27:55;21.70;99.90
22635;DHT22;11484;50.858;4.384;2023-03-30T07:30:22;22.00;99.90
22635;DHT22;11484;50.858;4.384;2023-03-30T07:32:48;22.10;98.90
22635;DHT22;11484;50.858;4.384;2023-03-30T07:35:15;22.40;97.90
22635;DHT22;11484;50.858;4.384;2023-03-30T07:37:41;21.90;97.90
22635;DHT22;11484;50.858;4.384;2023-03-30T07:40:08;21.00;98.90
22635;DHT22;11484;50.858;4.384;2023-03-30T07:42:34;20.40;99.90
22635;DHT22;11484;50.858;4.384;2023-03-30T07:44:59;20.00;99.90
22635;DHT22;11484;50.858;4.384;2023-03-30T07:47:25;19.50;99.90
22635;DHT22;11484;50.858;4.384;2023-03-30T07:49:51;19.10;99.90
22635;DHT22;11484;50.858;4.384;2023-03-30T07:52:17;18.70;99.90
22635;DHT22;11484;50.858;4.384;2023-03-30T07:54:43;18.30;99.90
22635;DHT22;11484;50.858;4.384;2023-03-30T07:57:10;18.00;99.90
22635;DHT22;11484;50.858;4.384;2023-03-30T07:59:36;17.60;99.90
22635;DHT22;11484;50.858;4.384;2023-03-30T08:02:02;17.20;99.90
22635;DHT22;11484;50.858;4.384;2023-03-30T08:04:29;16.90;99.90
22635;DHT22;11484;50.858;4.384;2023-03-30T08:06:54;16.50;99.90
22635;DHT22;11484;50.858;4.384;2023-03-30T08:09:20;16.40;99.90
22635;DHT22;11484;50.858;4.384;2023-03-30T08:11:46;16.40;99.90
22635;DHT22;11484;50.858;4.384;2023-03-30T08:14:12;16.20;99.90
22635;DHT22;11484;50.858;4.384;2023-03-30T08:16:37;16.10;99.90
22635;DHT22;11484;50.858;4.384;2023-03-30T08:19:03;16.10;99.90
22635;DHT22;11484;50.858;4.384;2023-03-30T08:21:29;15.90;99.90
22635;DHT22;11484;50.858;4.384;2023-03-30T08:23:55;15.80;99.90
22635;DHT22;11484;50.858;4.384;2023-03-30T08:26:26;15.70;99.90
22635;DHT22;11484;50.858;4.384;2023-03-30T08:28:52;15.60;99.90
22635;DHT22;11484;50.858;4.384;2023-03-30T08:31:19;15.60;99.90
22635;DHT22;11484;50.858;4.384;2023-03-30T08:33:47;15.70;99.90
22635;DHT22;11484;50.858;4.384;2023-03-30T08:36:13;15.80;99.90
22635;DHT22;11484;50.858;4.384;2023-03-30T08:38:39;16.00;99.90
22635;DHT22;11484;50.858;4.384;2023-03-30T08:44:14;17.50;99.90
22635;DHT22;11484;50.858;4.384;2023-03-30T08:46:43;18.60;99.90
22635;DHT22;11484;50.858;4.384;2023-03-30T08:49:14;19.40;99.90
22635;DHT22;11484;50.858;4.384;2023-03-30T08:51:41;20.10;99.90
22635;DHT22;11484;50.858;4.384;2023-03-30T08:54:13;20.30;99.90
22635;DHT22;11484;50.858;4.384;2023-03-30T08:57:04;20.50;99.90
22635;DHT22;11484;50.858;4.384;2023-03-30T08:59:48;20.10;99.90
22635;DHT22;11484;50.858;4.384;2023-03-30T09:02:43;20.20;99.90
22635;DHT22;11484;50.858;4.384;2023-03-30T09:05:19;20.40;99.90
22635;DHT22;11484;50.858;4.384;2023-03-30T09:10:36;19.80;99.90
22635;DHT22;11484;50.858;4.384;2023-03-30T09:13:05;19.60;99.90
22635;DHT22;11484;50.858;4.384;2023-03-30T09:15:53;19.40;99.90
22635;DHT22;11484;50.858;4.384;2023-03-30T09:18:24;19.10;99.90
22635;DHT22;11484;50.858;4.384;2023-03-30T09:20:54;18.90;99.90
22635;DHT22;11484;50.858;4.384;2023-03-30T09:23:21;18.60;99.90
22635;DHT22;11484;50.858;4.384;2023-03-30T09:29:02;17.70;99.90
22635;DHT22;11484;50.858;4.384;2023-03-30T09:34:24;16.80;99.90
22635;DHT22;11484;50.858;4.384;2023-03-30T09:37:08;16.60;99.90
22635;DHT22;11484;50.858;4.384;2023-03-30T09:39:35;16.50;99.90
22635;DHT22;11484;50.858;4.384;2023-03-30T09:44:54;16.40;99.90
22635;DHT22;11484;50.858;4.384;2023-03-30T09:47:35;16.20;99.90
22635;DHT22;11484;50.858;4.384;2023-03-30T09:50:08;15.90;99.90
22635;DHT22;11484;50.858;4.384;2023-03-30T09:52:38;16.00;99.90
22635;DHT22;11484;50.858;4.384;2023-03-30T09:57:43;16.10;99.90
22635;DHT22;11484;50.858;4.384;2023-03-30T10:00:32;16.00;99.90
22635;DHT22;11484;50.858;4.384;2023-03-30T10:03:00;15.90;99.90
22635;DHT22;11484;50.858;4.384;2023-03-30T10:05:28;15.80;99.90
22635;DHT22;11484;50.858;4.384;2023-03-30T10:08:03;15.60;99.90
22635;DHT22;11484;50.858;4.384;2023-03-30T10:10:37;15.50;99.90
22635;DHT22;11484;50.858;4.384;2023-03-30T10:15:39;15.40;99.90
22635;DHT22;11484;50.858;4.384;2023-03-30T10:18:26;15.30;99.90
22635;DHT22;11484;50.858;4.384;2023-03-30T10:23:30;15.00;99.90
22635;DHT22;11484;50.858;4.384;2023-03-30T10:26:02;14.90;99.90
22635;DHT22;11484;50.858;4.384;2023-03-30T10:28:30;15.10;99.90
22635;DHT22;11484;50.858;4.384;2023-03-30T10:31:01;15.70;99.90
22635;DHT22;11484;50.858;4.384;2023-03-30T10:33:29;16.40;99.90
22635;DHT22;11484;50.858;4.384;2023-03-30T10:35:57;16.60;99.90
22635;DHT22;11484;50.858;4.384;2023-03-30T10:38:30;16.60;99.90
22635;DHT22;11484;50.858;4.384;2023-03-30T10:41:17;16.50;99.90
22635;DHT22;11484;50.858;4.384;2023-03-30T10:43:46;16.50;99.90
22635;DHT22;11484;50.858;4.384;2023-03-30T10:46:18;16.30;99.90
22635;DHT22;11484;50.858;4.384;2023-03-30T10:51:20;16.20;99.90
22635;DHT22;11484;50.858;4.384;2023-03-30T10:56:39;16.30;99.90
22635;DHT22;11484;50.858;4.384;2023-03-30T10:59:58;16.30;99.90
22635;DHT22;11484;50.858;4.384;2023-03-30T11:04:41;16.40;99.90
22635;DHT22;11484;50.858;4.384;2023-03-30T11:10:04;16.80;99.90
22635;DHT22;11484;50.858;4.384;2023-03-30T11:12:38;16.90;99.90
22635;DHT22;11484;50.858;4.384;2023-03-30T11:15:18;16.90;99.90
22635;DHT22;11484;50.858;4.384;2023-03-30T11:17:49;16.90;99.90
22635;DHT22;11484;50.858;4.384;2023-03-30T11:23:28;16.90;99.90
22635;DHT22;11484;50.858;4.384;2023-03-30T11:26:01;17.00;99.90
22635;DHT22;11484;50.858;4.384;2023-03-30T11:34:25;16.70;99.90
22635;DHT22;11484;50.858;4.384;2023-03-30T11:42:38;16.60;99.90
22635;DHT22;11484;50.858;4.384;2023-03-30T11:45:17;16.70;99.90
22635;DHT22;11484;50.858;4.384;2023-03-30T11:47:48;16.80;99.90
22635;DHT22;11484;50.858;4.384;2023-03-30T11:53:26;17.40;99.90
22635;DHT22;11484;50.858;4.384;2023-03-30T11:58:43;17.80;99.90
22635;DHT22;11484;50.858;4.384;2023-03-30T12:03:45;17.70;99.90
22635;DHT22;11484;50.858;4.384;2023-03-30T12:09:05;17.70;99.90
22635;DHT22;11484;50.858;4.384;2023-03-30T12:19:48;18.20;99.90
22635;DHT22;11484;50.858;4.384;2023-03-30T12:22:36;18.10;99.90
22635;DHT22;11484;50.858;4.384;2023-03-30T12:25:15;18.00;99.90
22635;DHT22;11484;50.858;4.384;2023-03-30T12:30:40;17.90;99.90
22635;DHT22;11484;50.858;4.384;2023-03-30T12:33:50;17.80;99.90
22635;DHT22;11484;50.858;4.384;2023-03-30T12:36:31;18.00;99.90
22635;DHT22;11484;50.858;4.384;2023-03-30T12:39:00;18.10;99.90
22635;DHT22;11484;50.858;4.384;2023-03-30T12:41:28;18.20;99.90
22635;DHT22;11484;50.858;4.384;2023-03-30T12:46:45;18.30;99.90
22635;DHT22;11484;50.858;4.384;2023-03-30T13:05:03;18.50;99.90
22635;DHT22;11484;50.858;4.384;2023-03-30T13:07:31;18.50;99.90
22635;DHT22;11484;50.858;4.384;2023-03-30T13:10:05;18.40;99.90
22635;DHT22;11484;50.858;4.384;2023-03-30T13:12:47;18.40;99.90
22635;DHT22;11484;50.858;4.384;2023-03-30T13:15:32;18.30;99.90
22635;DHT22;11484;50.858;4.384;2023-03-30T13:18:22;18.30;99.90
22635;DHT22;11484;50.858;4.384;2023-03-30T13:28:47;18.10;99.90
22635;DHT22;11484;50.858;4.384;2023-03-30T13:39:34;18.30;99.90
22635;DHT22;11484;50.858;4.384;2023-03-30T13:43:07;18.30;99.90
22635;DHT22;11484;50.858;4.384;2023-03-30T13:50:58;18.00;99.90
22635;DHT22;11484;50.858;4.384;2023-03-30T13:53:29;17.80;99.90
22635;DHT22;11484;50.858;4.384;2023-03-30T13:55:56;17.80;99.90
22635;DHT22;11484;50.858;4.384;2023-03-30T13:58:29;17.70;99.90
22635;DHT22;11484;50.858;4.384;2023-03-30T14:01:11;17.70;99.90
22635;DHT22;11484;50.858;4.384;2023-03-30T14:03:42;17.60;99.90
22635;DHT22;11484;50.858;4.384;2023-03-30T14:06:20;17.50;99.90
22635;DHT22;11484;50.858;4.384;2023-03-30T14:08:49;17.50;99.90
22635;DHT22;11484;50.858;4.384;2023-03-30T14:11:20;17.60;99.90
22635;DHT22;11484;50.858;4.384;2023-03-30T14:13:49;17.50;99.90
22635;DHT22;11484;50.858;4.384;2023-03-30T14:16:25;17.40;99.90
22635;DHT22;11484;50.858;4.384;2023-03-30T14:21:35;17.60;99.90
22635;DHT22;11484;50.858;4.384;2023-03-30T14:24:03;17.70;99.90
22635;DHT22;11484;50.858;4.384;2023-03-30T14:26:29;17.80;99.90
22635;DHT22;11484;50.858;4.384;2023-03-30T14:28:57;17.80;99.90
22635;DHT22;11484;50.858;4.384;2023-03-30T14:31:24;17.50;99.90
22635;DHT22;11484;50.858;4.384;2023-03-30T14:33:52;17.30;99.90
22635;DHT22;11484;50.858;4.384;2023-03-30T14:36:19;17.40;99.90
22635;DHT22;11484;50.858;4.384;2023-03-30T14:38:48;17.20;99.90
22635;DHT22;11484;50.858;4.384;2023-03-30T14:44:01;17.00;99.90
22635;DHT22;11484;50.858;4.384;2023-03-30T14:46:39;17.10;99.90
22635;DHT22;11484;50.858;4.384;2023-03-30T14:49:10;16.70;99.90
22635;DHT22;11484;50.858;4.384;2023-03-30T14:51:44;16.40;99.90
22635;DHT22;11484;50.858;4.384;2023-03-30T14:54:21;16.20;99.90
22635;DHT22;11484;50.858;4.384;2023-03-30T14:56:55;15.90;99.90
22635;DHT22;11484;50.858;4.384;2023-03-30T14:59:23;15.90;99.90
22635;DHT22;11484;50.858;4.384;2023-03-30T15:01:50;15.90;99.90
22635;DHT22;11484;50.858;4.384;2023-03-30T15:04:17;15.80;99.90
22635;DHT22;11484;50.858;4.384;2023-03-30T15:06:45;15.70;99.90
22635;DHT22;11484;50.858;4.384;2023-03-30T15:09:17;15.70;99.90
22635;DHT22;11484;50.858;4.384;2023-03-30T15:11:58;15.80;99.90
22635;DHT22;11484;50.858;4.384;2023-03-30T15:14:26;15.90;99.90
22635;DHT22;11484;50.858;4.384;2023-03-30T15:16:55;16.00;99.90
22635;DHT22;11484;50.858;4.384;2023-03-30T15:21:50;16.00;99.90
22635;DHT22;11484;50.858;4.384;2023-03-30T15:24:23;15.90;99.90
22635;DHT22;11484;50.858;4.384;2023-03-30T15:26:52;15.80;99.90
22635;DHT22;11484;50.858;4.384;2023-03-30T15:29:19;15.70;99.90
22635;DHT22;11484;50.858;4.384;2023-03-30T15:32:24;15.70;99.90
22635;DHT22;11484;50.858;4.384;2023-03-30T15:35:17;15.80;99.90
22635;DHT22;11484;50.858;4.384;2023-03-30T15:38:15;15.90;99.90
22635;DHT22;11484;50.858;4.384;2023-03-30T15:40:44;16.10;99.90
22635;DHT22;11484;50.858;4.384;2023-03-30T15:43:18;16.20;99.90
22635;DHT22;11484;50.858;4.384;2023-03-30T15:46:06;16.20;99.90
22635;DHT22;11484;50.858;4.384;2023-03-30T15:48:45;16.20;99.90
22635;DHT22;11484;50.858;4.384;2023-03-30T15:53:58;16.40;99.90
22635;DHT22;11484;50.858;4.384;2023-03-30T15:56:36;16.40;99.90
22635;DHT22;11484;50.858;4.384;2023-03-30T15:59:02;16.30;99.90
22635;DHT22;11484;50.858;4.384;2023-03-30T16:01:51;16.30;99.90
22635;DHT22;11484;50.858;4.384;2023-03-30T16:04:19;16.40;99.90
22635;DHT22;11484;50.858;4.384;2023-03-30T16:06:45;16.30;99.90
22635;DHT22;11484;50.858;4.384;2023-03-30T16:09:11;16.20;99.90
22635;DHT22;11484;50.858;4.384;2023-03-30T16:11:37;16.10;99.90
22635;DHT22;11484;50.858;4.384;2023-03-30T16:14:04;16.10;99.90
22635;DHT22;11484;50.858;4.384;2023-03-30T16:16:32;16.10;99.90
22635;DHT22;11484;50.858;4.384;2023-03-30T16:18:58;16.10;99.90
22635;DHT22;11484;50.858;4.384;2023-03-30T16:21:24;16.00;99.90
22635;DHT22;11484;50.858;4.384;2023-03-30T16:23:50;15.80;99.90
22635;DHT22;11484;50.858;4.384;2023-03-30T16:26:16;15.90;99.90
22635;DHT22;11484;50.858;4.384;2023-03-30T16:28:42;15.90;99.90
22635;DHT22;11484;50.858;4.384;2023-03-30T16:31:16;16.00;99.90
22635;DHT22;11484;50.858;4.384;2023-03-30T16:33:43;15.90;99.90
22635;DHT22;11484;50.858;4.384;2023-03-30T16:36:20;15.70;99.90
22635;DHT22;11484;50.858;4.384;2023-03-30T16:38:47;15.70;99.90
22635;DHT22;11484;50.858;4.384;2023-03-30T16:41:19;15.60;99.90
22635;DHT22;11484;50.858;4.384;2023-03-30T16:43:45;15.60;99.90
22635;DHT22;11484;50.858;4.384;2023-03-30T16:46:16;15.60;99.90
22635;DHT22;11484;50.858;4.384;2023-03-30T16:48:43;15.60;99.90
22635;DHT22;11484;50.858;4.384;2023-03-30T16:51:13;15.70;99.90
22635;DHT22;11484;50.858;4.384;2023-03-30T16:53:39;15.60;99.90
22635;DHT22;11484;50.858;4.384;2023-03-30T16:56:05;15.70;99.90
22635;DHT22;11484;50.858;4.384;2023-03-30T16:58:32;15.60;99.90
22635;DHT22;11484;50.858;4.384;2023-03-30T17:00:58;15.60;99.90
22635;DHT22;11484;50.858;4.384;2023-03-30T17:03:31;15.60;99.90
22635;DHT22;11484;50.858;4.384;2023-03-30T17:05:57;15.60;99.90
22635;DHT22;11484;50.858;4.384;2023-03-30T17:08:25;15.50;99.90
22635;DHT22;11484;50.858;4.384;2023-03-30T17:10:53;15.60;99.90
22635;DHT22;11484;50.858;4.384;2023-03-30T17:13:19;15.60;99.90
22635;DHT22;11484;50.858;4.384;2023-03-30T17:15:45;15.60;99.90
22635;DHT22;11484;50.858;4.384;2023-03-30T17:18:16;15.70;99.90
22635;DHT22;11484;50.858;4.384;2023-03-30T17:20:43;15.70;99.90
22635;DHT22;11484;50.858;4.384;2023-03-30T17:23:12;15.80;99.90
22635;DHT22;11484;50.858;4.384;2023-03-30T17:25:38;15.90;99.90
22635;DHT22;11484;50.858;4.384;2023-03-30T17:28:05;15.90;99.90
22635;DHT22;11484;50.858;4.384;2023-03-30T17:30:37;15.80;99.90
22635;DHT22;11484;50.858;4.384;2023-03-30T17:33:06;15.90;99.90
22635;DHT22;11484;50.858;4.384;2023-03-30T17:35:37;15.80;99.90
22635;DHT22;11484;50.858;4.384;2023-03-30T17:38:04;15.70;99.90
22635;DHT22;11484;50.858;4.384;2023-03-30T17:40:38;15.70;99.90
22635;DHT22;11484;50.858;4.384;2023-03-30T17:43:06;15.50;99.90
22635;DHT22;11484;50.858;4.384;2023-03-30T17:45:32;15.40;99.90
22635;DHT22;11484;50.858;4.384;2023-03-30T17:48:01;15.30;99.90
22635;DHT22;11484;50.858;4.384;2023-03-30T17:50:37;15.10;99.90
22635;DHT22;11484;50.858;4.384;2023-03-30T17:53:04;15.10;99.90
22635;DHT22;11484;50.858;4.384;2023-03-30T17:55:32;15.00;99.90
22635;DHT22;11484;50.858;4.384;2023-03-30T17:57:59;15.00;99.90
22635;DHT22;11484;50.858;4.384;2023-03-30T18:00:32;14.90;99.90
22635;DHT22;11484;50.858;4.384;2023-03-30T18:02:59;14.90;99.90
22635;DHT22;11484;50.858;4.384;2023-03-30T18:05:27;14.90;99.90
22635;DHT22;11484;50.858;4.384;2023-03-30T18:07:54;14.80;99.90
22635;DHT22;11484;50.858;4.384;2023-03-30T18:10:23;14.80;99.90
22635;DHT22;11484;50.858;4.384;2023-03-30T18:12:51;14.60;99.90
22635;DHT22;11484;50.858;4.384;2023-03-30T18:15:22;14.60;99.90
22635;DHT22;11484;50.858;4.384;2023-03-30T18:17:51;14.50;99.90
22635;DHT22;11484;50.858;4.384;2023-03-30T18:23:03;14.50;99.90
22635;DHT22;11484;50.858;4.384;2023-03-30T18:25:30;14.50;99.90
22635;DHT22;11484;50.858;4.384;2023-03-30T18:27:56;14.40;99.90
22635;DHT22;11484;50.858;4.384;2023-03-30T18:30:30;14.40;99.90
22635;DHT22;11484;50.858;4.384;2023-03-30T18:32:58;14.20;99.90
22635;DHT22;11484;50.858;4.384;2023-03-30T18:35:27;14.20;99.90
22635;DHT22;11484;50.858;4.384;2023-03-30T18:37:54;14.10;99.90